Aérodrome :
LOGIN :

S'inscrire | Disclaimer

   EN    FR    IT 

 










Légende :    VFR   VFR Marginal   IFR   IFR Intensif   IFR Très Intensif
Visi : 
Plafond : 
>= 8 km
>= 3000ft
5 à 8 km
1000 à 3000 ft
1500m à 5 km
500 à 1000 ft
800 à 1500m
200 à 500 ft
< 800m
< 200 ft
Symboles :   Orages  Brouillard  Fortes neiges  Fortes précipitations  Vent > 20 kt
SIGMETs :   Divers  Orages  Givrage  Turbulence  Onde Orograph.  Cendres Volcan.






- Altitude de l'aérodrome : 1791 ft
- Code IATA : AOT


LIMW - Aosta

DERNIER METAR :
  • 181420Z 28018KT CAVOK 12/M09 Q1010

METARs EXPIRÉS :
  • 181350Z 26015KT CAVOK 13/M08 Q1010
  • 181320Z 29018KT CAVOK 13/M10 Q1010
  • 181250Z 30017KT CAVOK 13/M10 Q1009
  • 181220Z 28011KT CAVOK 12/M11 Q1009
  • 181150Z 30014KT CAVOK 13/M09 Q1009
  • 181120Z 25008KT 210V290 CAVOK 11/M10 Q1009
  • 181050Z 25014KT CAVOK 13/M07 Q1009
  • 181020Z 25014KT CAVOK 12/M07 Q1010
  • 180950Z 27013KT 220V310 9999 SCT100 12/M06 Q1010

TAF TAF LIMW
Valide du 18 à 15h jusqu'au 19 à 00h UTC


181400Z 1815/1824 29014KT 9999 FEW080
TEMPO 1815/1818 29018G28KT
BECMG 1818/1820 29005KT



MET'MAP, la Météo Aéronautique d'un coup d'oeil ! - Copyright ORBIFLY Décembre 2007 - Disclaimer

ORBIFLY MET'MAP TEAM :

Programmation & Développement : Alexandra Zaïnal
Sur une idée originale de : Baudouin d'Aumeries
Soutien technique & logistique : Manuel Goepfert
Assistance : Marc-Olivier Méhu




SOURCES & CREDITS :

   NOAA